createdAt,value
2018-02-18T00:01:37.736Z,128.62
2018-02-18T00:04:06.064Z,108.00
2018-02-18T00:06:34.388Z,124.87
2018-02-18T00:09:02.840Z,118.13
2018-02-18T00:11:32.315Z,121.32
2018-02-18T00:14:00.637Z,108.15
2018-02-18T00:16:29.044Z,109.80
2018-02-18T00:18:57.377Z,93.05
2018-02-18T00:21:26.049Z,101.18
2018-02-18T00:23:54.460Z,89.07
2018-02-18T00:26:22.793Z,96.93
2018-02-18T00:28:51.168Z,113.85
2018-02-18T00:31:19.492Z,100.85
2018-02-18T00:33:47.815Z,90.22
2018-02-18T00:36:16.920Z,90.32
2018-02-18T00:38:45.220Z,99.28
2018-02-18T00:41:13.592Z,102.90
2018-02-18T00:43:42.691Z,96.30
2018-02-18T00:46:11.780Z,109.20
2018-02-18T00:48:41.097Z,102.72
2018-02-18T00:51:09.441Z,99.40
2018-02-18T00:53:38.410Z,123.87
2018-02-18T00:56:08.932Z,91.50
2018-02-18T00:58:37.772Z,102.53
2018-02-18T01:01:06.096Z,96.22
2018-02-18T01:03:34.456Z,98.00
2018-02-18T01:06:02.882Z,91.93
2018-02-18T01:08:32.559Z,111.20
2018-02-18T01:11:01.012Z,111.50
2018-02-18T01:13:29.342Z,105.90
2018-02-18T01:15:57.721Z,98.03
2018-02-18T01:18:26.048Z,90.62
2018-02-18T01:20:54.388Z,94.30
2018-02-18T01:23:23.808Z,109.40
2018-02-18T01:25:52.353Z,99.30
2018-02-18T01:28:20.643Z,94.60
2018-02-18T01:30:49.029Z,93.75
2018-02-18T01:33:18.116Z,98.05
2018-02-18T01:35:46.444Z,101.65
2018-02-18T01:38:14.798Z,96.22
2018-02-18T01:40:43.125Z,116.03
2018-02-18T01:43:11.440Z,92.00
2018-02-18T01:45:39.789Z,88.20
2018-02-18T01:48:08.113Z,89.55
2018-02-18T01:50:38.940Z,80.40
2018-02-18T01:53:07.270Z,94.05
2018-02-18T01:55:35.595Z,79.07
2018-02-18T01:58:04.596Z,82.30
2018-02-18T02:00:32.920Z,80.70
2018-02-18T02:03:01.244Z,79.47
2018-02-18T02:05:30.060Z,89.85
2018-02-18T02:07:58.382Z,82.62
2018-02-18T02:10:26.708Z,69.10
2018-02-18T02:12:55.083Z,85.38
2018-02-18T02:15:23.422Z,85.22
2018-02-18T02:17:52.355Z,78.10
2018-02-18T02:20:20.720Z,74.05
2018-02-18T02:22:49.046Z,87.00
2018-02-18T02:25:17.416Z,78.20
2018-02-18T02:27:45.755Z,84.00
2018-02-18T02:30:14.086Z,103.55
2018-02-18T02:32:43.212Z,71.68
2018-02-18T02:35:11.805Z,102.30
2018-02-18T02:37:40.183Z,102.57
2018-02-18T02:40:08.564Z,85.30
2018-02-18T02:42:37.428Z,97.97
2018-02-18T02:45:05.739Z,94.78
2018-02-18T02:47:34.137Z,70.65
2018-02-18T02:50:02.472Z,90.60
2018-02-18T02:52:30.845Z,97.00
2018-02-18T02:54:59.171Z,102.05
2018-02-18T02:57:27.548Z,92.88
2018-02-18T02:59:56.429Z,87.85
2018-02-18T03:02:24.758Z,100.53
2018-02-18T03:04:53.091Z,97.60
2018-02-18T03:07:21.457Z,100.03
2018-02-18T03:09:50.324Z,107.87
2018-02-18T03:12:18.648Z,98.55
2018-02-18T03:14:48.356Z,100.50
2018-02-18T03:17:17.486Z,96.47
2018-02-18T03:19:45.958Z,121.50
2018-02-18T03:22:14.336Z,105.47
2018-02-18T03:24:43.337Z,111.00
2018-02-18T03:27:19.744Z,112.95
2018-02-18T03:29:48.086Z,112.78
2018-02-18T03:32:16.413Z,126.12
2018-02-18T03:34:44.884Z,121.43
2018-02-18T03:37:14.758Z,125.25
2018-02-18T03:39:43.088Z,129.27
2018-02-18T03:42:12.225Z,127.70
2018-02-18T03:44:41.012Z,131.75
2018-02-18T03:47:09.335Z,132.93
2018-02-18T03:49:37.697Z,135.52
2018-02-18T03:52:06.028Z,129.32
2018-02-18T03:54:34.384Z,149.05
2018-02-18T03:57:03.476Z,124.70
2018-02-18T03:59:33.075Z,129.35
2018-02-18T04:02:01.430Z,136.55
2018-02-18T04:04:29.754Z,139.65
2018-02-18T04:06:58.133Z,144.07
2018-02-18T04:09:26.465Z,144.98
2018-02-18T04:11:54.791Z,172.27
2018-02-18T04:14:23.917Z,151.85
2018-02-18T04:16:52.245Z,147.80
2018-02-18T04:19:21.748Z,131.25
2018-02-18T04:21:50.092Z,138.35
2018-02-18T04:24:18.560Z,127.05
2018-02-18T04:26:47.182Z,115.60
2018-02-18T04:29:15.776Z,101.57
2018-02-18T04:31:45.111Z,100.65
2018-02-18T04:34:13.455Z,90.55
2018-02-18T04:36:41.896Z,97.22
2018-02-18T04:39:10.229Z,97.90
2018-02-18T04:41:38.555Z,129.60
2018-02-18T04:44:07.113Z,111.12
2018-02-18T04:46:35.913Z,85.47
2018-02-18T04:49:04.373Z,96.35
2018-02-18T04:51:32.705Z,102.85
2018-02-18T04:54:01.076Z,113.57
2018-02-18T04:56:29.413Z,121.05
2018-02-18T04:58:57.749Z,120.05
2018-02-18T05:01:26.890Z,130.98
2018-02-18T05:03:55.250Z,129.77
2018-02-18T05:06:23.593Z,124.28
2018-02-18T05:08:51.957Z,149.50
2018-02-18T05:11:20.289Z,121.15
2018-02-18T05:13:48.695Z,127.30
2018-02-18T05:16:17.024Z,131.20
2018-02-18T05:18:45.365Z,140.65
2018-02-18T05:21:13.728Z,130.90
2018-02-18T05:23:42.059Z,115.82
2018-02-18T05:26:10.396Z,115.70
2018-02-18T05:28:39.057Z,130.50
2018-02-18T05:31:08.712Z,123.57
2018-02-18T05:33:37.072Z,122.15
2018-02-18T05:36:05.428Z,104.65
2018-02-18T05:38:35.114Z,105.90
2018-02-18T05:41:03.448Z,101.28
2018-02-18T05:43:31.829Z,126.87
2018-02-18T05:46:00.149Z,95.32
2018-02-18T05:48:28.476Z,102.80
2018-02-18T05:50:56.847Z,122.15
2018-02-18T05:53:25.204Z,99.55
2018-02-18T05:55:53.541Z,91.60
2018-02-18T05:58:21.906Z,81.90
2018-02-18T06:00:50.245Z,74.43
2018-02-18T06:03:18.622Z,82.07
2018-02-18T06:05:46.956Z,93.80
2018-02-18T06:08:16.043Z,92.05
2018-02-18T06:10:44.828Z,93.85
2018-02-18T06:13:18.960Z,93.20
2018-02-18T06:15:47.412Z,84.35
2018-02-18T06:18:16.227Z,84.40
2018-02-18T06:20:44.548Z,89.78
2018-02-18T06:23:12.920Z,92.15
2018-02-18T06:25:41.353Z,97.82
2018-02-18T06:28:11.005Z,78.03
2018-02-18T06:30:39.328Z,103.38
2018-02-18T06:33:08.344Z,101.07
2018-02-18T06:35:36.674Z,105.32
2018-02-18T06:38:05.008Z,101.00
2018-02-18T06:40:33.721Z,132.02
2018-02-18T06:43:02.414Z,123.50
2018-02-18T06:45:30.752Z,121.20
2018-02-18T06:47:59.123Z,125.70
2018-02-18T06:50:28.225Z,125.43
2018-02-18T06:52:57.866Z,121.10
2018-02-18T06:55:26.215Z,126.00
2018-02-18T06:57:55.312Z,116.60
2018-02-18T07:00:24.457Z,122.53
2018-02-18T07:02:52.783Z,117.00
2018-02-18T07:05:21.118Z,141.40
2018-02-18T07:07:49.489Z,116.88
2018-02-18T07:10:18.591Z,107.47
2018-02-18T07:12:46.932Z,119.25
2018-02-18T07:15:15.285Z,117.90
2018-02-18T07:17:43.644Z,125.50
2018-02-18T07:20:11.969Z,88.05
2018-02-18T07:22:41.127Z,99.47
2018-02-18T07:25:09.778Z,93.53
2018-02-18T07:27:38.108Z,115.32
2018-02-18T07:30:07.297Z,113.22
2018-02-18T07:32:36.577Z,86.93
2018-02-18T07:35:06.953Z,103.60
2018-02-18T07:37:35.810Z,122.43
2018-02-18T07:40:04.144Z,92.20
2018-02-18T07:42:32.745Z,79.70
2018-02-18T07:45:01.168Z,83.30
2018-02-18T07:47:29.560Z,78.82
2018-02-18T07:49:58.016Z,67.82
2018-02-18T07:52:26.433Z,81.72
2018-02-18T07:54:54.793Z,72.10
2018-02-18T07:57:23.136Z,73.70
2018-02-18T07:59:51.450Z,66.40
2018-02-18T08:02:21.752Z,69.85
2018-02-18T08:04:50.783Z,74.75
2018-02-18T08:07:19.108Z,74.37
2018-02-18T08:09:47.512Z,66.20
2018-02-18T08:12:16.256Z,61.72
2018-02-18T08:14:45.573Z,58.30
2018-02-18T08:17:13.940Z,63.53
2018-02-18T08:19:42.259Z,59.72
2018-02-18T08:22:10.580Z,57.97
2018-02-18T08:24:38.925Z,57.35
2018-02-18T08:27:07.307Z,57.80
2018-02-18T08:29:35.686Z,63.00
2018-02-18T08:32:06.200Z,51.37
2018-02-18T08:34:35.096Z,51.75
2018-02-18T08:37:03.657Z,60.30
2018-02-18T08:39:31.995Z,57.67
2018-02-18T08:42:00.376Z,59.75
2018-02-18T08:44:28.893Z,65.68
2018-02-18T08:46:57.206Z,47.80
2018-02-18T08:49:25.577Z,57.23
2018-02-18T08:51:53.956Z,50.55
2018-02-18T08:54:22.272Z,45.83
2018-02-18T08:56:50.738Z,55.65
2018-02-18T08:59:19.064Z,56.75
2018-02-18T09:01:47.377Z,41.93
2018-02-18T09:04:16.741Z,49.43
2018-02-18T09:06:45.064Z,47.40
2018-02-18T09:09:13.378Z,50.93
2018-02-18T09:11:41.740Z,53.20
2018-02-18T09:14:10.287Z,57.23
2018-02-18T09:16:38.602Z,46.90
2018-02-18T09:19:06.992Z,55.22
2018-02-18T09:21:35.333Z,52.13
2018-02-18T09:24:03.663Z,42.38
2018-02-18T09:26:32.032Z,50.33
2018-02-18T09:29:01.464Z,47.55
2018-02-18T09:31:30.464Z,44.67
2018-02-18T09:33:58.806Z,34.57
2018-02-18T09:36:27.120Z,43.47
2018-02-18T09:38:55.516Z,40.77
2018-02-18T09:41:23.854Z,38.80
2018-02-18T09:43:52.168Z,39.83
2018-02-18T09:46:21.288Z,49.83
2018-02-18T09:48:49.598Z,40.47
2018-02-18T09:51:17.928Z,44.47
2018-02-18T09:53:47.311Z,40.83
2018-02-18T09:56:15.703Z,40.80
2018-02-18T09:58:44.076Z,37.77
2018-02-18T10:01:12.646Z,36.20
2018-02-18T10:03:41.000Z,42.00
2018-02-18T10:06:09.800Z,40.90
2018-02-18T10:08:51.302Z,39.00
2018-02-18T10:11:20.134Z,39.80
2018-02-18T10:13:48.604Z,51.17
2018-02-18T10:16:17.447Z,42.20
2018-02-18T10:18:45.747Z,44.63
2018-02-18T10:21:14.064Z,40.30
2018-02-18T10:23:43.146Z,38.20
2018-02-18T10:26:11.454Z,47.17
2018-02-18T10:28:40.394Z,37.50
2018-02-18T10:31:08.800Z,37.20
2018-02-18T10:33:37.124Z,40.77
2018-02-18T10:36:05.433Z,39.30
2018-02-18T10:38:34.396Z,36.73
2018-02-18T10:41:02.704Z,40.30
2018-02-18T10:43:31.601Z,45.00
2018-02-18T10:46:00.194Z,48.87
2018-02-18T10:48:31.445Z,54.17
2018-02-18T10:50:59.759Z,39.53
2018-02-18T10:53:28.110Z,45.53
2018-02-18T10:55:56.437Z,41.27
2018-02-18T10:58:24.961Z,43.80
2018-02-18T11:00:53.288Z,38.47
2018-02-18T11:03:25.560Z,39.00
2018-02-18T11:05:54.141Z,41.87
2018-02-18T11:08:22.452Z,33.03
2018-02-18T11:10:50.884Z,35.50
2018-02-18T11:13:19.974Z,39.23
2018-02-18T11:15:49.212Z,34.17
2018-02-18T11:18:17.789Z,33.43
2018-02-18T11:20:48.903Z,41.80
2018-02-18T11:23:17.461Z,39.70
2018-02-18T11:25:45.782Z,32.43
2018-02-18T11:28:14.111Z,28.40
2018-02-18T11:30:42.513Z,32.60
2018-02-18T11:33:11.292Z,42.50
2018-02-18T11:35:40.225Z,30.60
2018-02-18T11:38:08.584Z,30.73
2018-02-18T11:40:37.620Z,36.90
2018-02-18T11:43:06.471Z,27.93
2018-02-18T11:45:35.879Z,41.40
2018-02-18T11:48:04.453Z,37.30
2018-02-18T11:50:37.356Z,37.23
2018-02-18T11:53:06.891Z,33.60
2018-02-18T11:55:35.356Z,30.30
2018-02-18T11:58:03.673Z,30.67
2018-02-18T12:00:32.388Z,28.33
2018-02-18T12:03:00.761Z,30.10
2018-02-18T12:05:30.805Z,33.77
2018-02-18T12:07:59.185Z,40.00
2018-02-18T12:10:27.552Z,27.10
2018-02-18T12:12:55.911Z,31.10
2018-02-18T12:15:24.223Z,40.27
2018-02-18T12:17:52.573Z,33.13
2018-02-18T12:20:20.884Z,36.53
2018-02-18T12:25:23.767Z,26.47
2018-02-18T12:27:52.116Z,32.10
2018-02-18T12:30:20.432Z,34.83
2018-02-18T12:32:48.805Z,35.23
2018-02-18T12:35:17.792Z,37.17
2018-02-18T12:37:46.141Z,33.17
2018-02-18T12:40:14.457Z,37.50
2018-02-18T12:42:42.008Z,37.40
2018-02-18T12:45:10.601Z,34.20
2018-02-18T12:47:40.077Z,30.43
2018-02-18T12:50:08.402Z,37.27
2018-02-18T12:52:36.711Z,33.13
2018-02-18T12:55:05.056Z,27.40
2018-02-18T12:57:33.813Z,26.37
2018-02-18T13:00:02.168Z,23.07
2018-02-18T13:02:30.529Z,24.20
2018-02-18T13:04:58.840Z,26.90
2018-02-18T13:07:27.189Z,34.27
2018-02-18T13:09:55.503Z,29.43
2018-02-18T13:12:24.610Z,33.97
2018-02-18T13:14:52.984Z,29.93
2018-02-18T13:17:21.311Z,34.43
2018-02-18T13:19:49.753Z,29.97
2018-02-18T13:22:19.970Z,29.23
2018-02-18T13:24:48.290Z,32.20
2018-02-18T13:27:16.604Z,25.23
2018-02-18T13:29:45.665Z,30.70
2018-02-18T13:32:13.974Z,27.40
2018-02-18T13:34:42.305Z,28.60
2018-02-18T13:37:11.118Z,38.70
2018-02-18T13:39:39.426Z,28.40
2018-02-18T13:42:07.816Z,32.33
2018-02-18T13:44:36.186Z,31.00
2018-02-18T13:47:05.072Z,28.77
2018-02-18T13:49:33.617Z,27.77
2018-02-18T13:52:02.588Z,29.60
2018-02-18T13:54:31.059Z,31.97
2018-02-18T13:56:59.400Z,29.17
2018-02-18T13:59:27.721Z,30.03
2018-02-18T14:01:56.029Z,31.47
2018-02-18T14:04:24.436Z,33.03
2018-02-18T14:06:52.804Z,43.23
2018-02-18T14:09:21.252Z,37.27
2018-02-18T14:11:50.540Z,35.93
2018-02-18T14:14:19.675Z,31.13
2018-02-18T14:16:47.988Z,38.33
2018-02-18T14:19:16.303Z,35.17
2018-02-18T14:21:44.656Z,35.57
2018-02-18T14:24:12.976Z,30.10
2018-02-18T14:26:41.369Z,32.73
2018-02-18T14:29:09.681Z,35.10
2018-02-18T14:31:40.231Z,36.07
2018-02-18T14:34:08.593Z,38.10
2018-02-18T14:36:36.978Z,32.77
2018-02-18T14:39:06.057Z,37.87
2018-02-18T14:41:52.881Z,34.00
2018-02-18T14:44:38.730Z,40.73
2018-02-18T14:47:24.592Z,34.87
2018-02-18T14:50:10.462Z,36.77
2018-02-18T14:52:56.459Z,41.87
2018-02-18T14:55:42.996Z,31.73
2018-02-18T14:58:11.719Z,39.60
2018-02-18T15:00:40.437Z,32.83
2018-02-18T15:03:08.757Z,23.93
2018-02-18T15:05:37.157Z,29.30
2018-02-18T15:08:05.483Z,31.53
2018-02-18T15:10:33.791Z,24.57
2018-02-18T15:13:02.182Z,36.40
2018-02-18T15:15:30.805Z,32.07
2018-02-18T15:17:59.701Z,29.43
2018-02-18T15:20:28.248Z,35.27
2018-02-18T15:22:56.560Z,32.20
2018-02-18T15:25:24.893Z,33.83
2018-02-18T15:27:53.664Z,26.13
2018-02-18T15:30:22.000Z,31.23
2018-02-18T15:32:50.335Z,35.83
2018-02-18T15:35:18.702Z,36.30
2018-02-18T15:37:47.044Z,31.50
2018-02-18T15:40:16.157Z,30.37
2018-02-18T15:42:44.585Z,29.10
2018-02-18T15:45:12.996Z,35.43
2018-02-18T15:47:41.555Z,33.57
2018-02-18T15:50:10.276Z,38.10
2018-02-18T15:52:39.987Z,31.10
2018-02-18T15:55:08.597Z,34.80
2018-02-18T15:57:37.038Z,40.33
2018-02-18T16:00:05.371Z,31.30
2018-02-18T16:02:33.740Z,39.50
2018-02-18T16:05:02.701Z,28.07
2018-02-18T16:07:31.061Z,38.40
2018-02-18T16:09:59.422Z,36.43
2018-02-18T16:12:27.851Z,34.43
2018-02-18T16:14:56.210Z,34.10
2018-02-18T16:17:24.566Z,37.13
2018-02-18T16:19:52.974Z,42.43
2018-02-18T16:22:21.308Z,30.13
2018-02-18T16:24:49.715Z,32.40
2018-02-18T16:27:18.166Z,30.90
2018-02-18T16:29:46.526Z,32.70
2018-02-18T16:32:14.876Z,40.30
2018-02-18T16:34:44.188Z,28.80
2018-02-18T16:37:12.542Z,36.03
2018-02-18T16:39:40.898Z,36.93
2018-02-18T16:42:09.304Z,40.25
2018-02-18T16:44:37.650Z,34.33
2018-02-18T16:47:06.033Z,35.20
2018-02-18T16:49:34.430Z,46.03
2018-02-18T16:52:03.370Z,55.23
2018-02-18T16:54:32.465Z,33.90
2018-02-18T16:57:00.871Z,36.97
2018-02-18T16:59:29.986Z,41.40
2018-02-18T17:01:58.313Z,39.70
2018-02-18T17:04:28.686Z,35.47
2018-02-18T17:06:57.001Z,42.20
2018-02-18T17:09:25.337Z,35.00
2018-02-18T17:11:53.745Z,39.17
2018-02-18T17:14:22.074Z,42.60
2018-02-18T17:16:50.302Z,43.10
2018-02-18T17:19:18.673Z,39.17
2018-02-18T17:21:47.005Z,39.50
2018-02-18T17:24:16.849Z,47.00
2018-02-18T17:26:47.161Z,48.63
2018-02-18T17:29:15.853Z,50.40
2018-02-18T17:31:45.297Z,50.93
2018-02-18T17:34:14.385Z,46.43
2018-02-18T17:36:43.456Z,41.50
2018-02-18T17:39:12.566Z,51.70
2018-02-18T17:41:41.737Z,43.40
2018-02-18T17:44:10.051Z,46.13
2018-02-18T17:46:38.404Z,49.10
2018-02-18T17:49:06.773Z,42.77
2018-02-18T17:51:35.265Z,41.60
2018-02-18T17:54:03.592Z,42.23
2018-02-18T17:56:31.960Z,38.90
2018-02-18T17:59:00.681Z,40.90
2018-02-18T18:01:28.986Z,43.87
2018-02-18T18:03:57.401Z,39.23
2018-02-18T18:06:25.723Z,51.90
2018-02-18T18:08:54.801Z,38.13
2018-02-18T18:11:23.321Z,56.50
2018-02-18T18:13:52.855Z,40.47
2018-02-18T18:16:21.182Z,40.60
2018-02-18T18:18:49.852Z,42.55
2018-02-18T18:21:18.596Z,45.63
2018-02-18T18:23:46.926Z,52.00
2018-02-18T18:26:15.299Z,43.20
2018-02-18T18:28:44.024Z,38.23
2018-02-18T18:31:12.346Z,45.03
2018-02-18T18:33:40.724Z,44.37
2018-02-18T18:36:09.044Z,44.97
2018-02-18T18:38:38.021Z,40.73
2018-02-18T18:41:06.383Z,46.30
2018-02-18T18:43:34.697Z,44.63
2018-02-18T18:46:03.013Z,50.17
2018-02-18T18:48:31.380Z,42.70
2018-02-18T18:51:00.462Z,41.90
2018-02-18T18:53:29.545Z,47.93
2018-02-18T18:55:59.120Z,45.10
2018-02-18T18:58:27.536Z,38.87
2018-02-18T19:00:55.860Z,43.47
2018-02-18T19:03:24.292Z,43.93
2018-02-18T19:05:52.609Z,50.03
2018-02-18T19:08:20.933Z,44.80
2018-02-18T19:10:50.944Z,48.67
2018-02-18T19:15:54.045Z,38.70
2018-02-18T19:18:22.412Z,44.03
2018-02-18T19:20:51.721Z,46.27
2018-02-18T19:23:22.199Z,47.07
2018-02-18T19:25:50.513Z,43.10
2018-02-18T19:28:18.828Z,44.67
2018-02-18T19:30:47.222Z,42.63
2018-02-18T19:33:15.656Z,46.13
2018-02-18T19:35:44.660Z,38.10
2018-02-18T19:38:13.691Z,40.73
2018-02-18T19:40:42.068Z,40.90
2018-02-18T19:43:10.401Z,44.83
2018-02-18T19:45:38.765Z,48.13
2018-02-18T19:48:07.433Z,42.77
2018-02-18T19:50:35.749Z,38.73
2018-02-18T19:53:05.868Z,38.60
2018-02-18T19:55:34.184Z,37.93
2018-02-18T19:58:02.845Z,53.30
2018-02-18T20:00:32.152Z,37.37
2018-02-18T20:03:00.817Z,36.07
2018-02-18T20:05:30.524Z,38.55
2018-02-18T20:07:58.884Z,30.40
2018-02-18T20:10:28.158Z,32.80
2018-02-18T20:12:56.484Z,31.10
2018-02-18T20:15:25.354Z,30.90
2018-02-18T20:17:54.265Z,29.43
2018-02-18T20:20:24.724Z,32.93
2018-02-18T20:22:53.052Z,27.87
2018-02-18T20:25:21.364Z,25.83
2018-02-18T20:27:50.010Z,31.13
2018-02-18T20:30:18.824Z,25.30
2018-02-18T20:32:48.741Z,24.63
2018-02-18T20:35:17.520Z,28.10
2018-02-18T20:37:46.784Z,26.67
2018-02-18T20:40:15.181Z,30.40
2018-02-18T20:42:44.082Z,29.93
2018-02-18T20:45:12.547Z,34.80
2018-02-18T20:47:41.396Z,27.37
2018-02-18T20:50:09.712Z,29.73
2018-02-18T20:52:38.344Z,27.77
2018-02-18T20:55:06.660Z,28.50
2018-02-18T20:57:34.980Z,37.45
2018-02-18T21:00:03.364Z,30.57
2018-02-18T21:02:31.689Z,27.00
2018-02-18T21:05:00.018Z,33.60
2018-02-18T21:07:30.004Z,29.07
2018-02-18T21:09:58.385Z,27.83
2018-02-18T21:12:26.908Z,33.80
2018-02-18T21:14:55.264Z,33.42
2018-02-18T21:17:24.269Z,34.10
2018-02-18T21:19:52.589Z,35.20
2018-02-18T21:22:20.942Z,36.17
2018-02-18T21:24:49.793Z,29.10
2018-02-18T21:27:19.037Z,33.43
2018-02-18T21:29:47.777Z,39.23
2018-02-18T21:32:16.100Z,37.00
2018-02-18T21:34:49.580Z,38.60
2018-02-18T21:37:17.659Z,39.97
2018-02-18T21:39:45.985Z,40.80
2018-02-18T21:42:14.403Z,39.07
2018-02-18T21:44:42.713Z,33.70
2018-02-18T21:47:11.037Z,34.73
2018-02-18T21:49:39.392Z,37.67
2018-02-18T21:52:07.712Z,37.93
2018-02-18T21:54:36.026Z,37.27
2018-02-18T21:57:04.756Z,33.77
2018-02-18T21:59:33.220Z,28.97
2018-02-18T22:02:01.537Z,29.67
2018-02-18T22:04:29.905Z,34.63
2018-02-18T22:06:58.216Z,33.03
2018-02-18T22:09:28.907Z,28.47
2018-02-18T22:11:57.272Z,25.10
2018-02-18T22:14:26.064Z,25.67
2018-02-18T22:16:55.043Z,29.90
2018-02-18T22:19:23.352Z,31.53
2018-02-18T22:21:51.712Z,31.00
2018-02-18T22:24:20.113Z,32.20
2018-02-18T22:26:48.430Z,31.37
2018-02-18T22:29:17.392Z,36.67
2018-02-18T22:31:45.707Z,34.33
2018-02-18T22:34:14.169Z,35.50
2018-02-18T22:36:43.037Z,32.33
2018-02-18T22:39:11.348Z,34.07
2018-02-18T22:41:39.745Z,32.90
2018-02-18T22:44:08.100Z,27.63
2018-02-18T22:46:36.408Z,30.47
2018-02-18T22:49:05.004Z,26.03
2018-02-18T22:51:33.344Z,29.77
2018-02-18T22:54:01.692Z,32.77
2018-02-18T22:56:30.296Z,32.13
2018-02-18T22:58:58.661Z,31.00
2018-02-18T23:01:27.750Z,36.90
2018-02-18T23:03:57.499Z,34.60
2018-02-18T23:06:25.892Z,28.97
2018-02-18T23:08:54.228Z,28.73
2018-02-18T23:11:23.300Z,27.77
2018-02-18T23:13:51.648Z,34.13
2018-02-18T23:16:20.043Z,31.83
2018-02-18T23:18:48.347Z,32.20
2018-02-18T23:21:16.721Z,31.93
2018-02-18T23:23:45.324Z,30.73
2018-02-18T23:26:14.404Z,30.00
2018-02-18T23:28:42.848Z,31.40
2018-02-18T23:31:11.156Z,34.57
2018-02-18T23:33:39.484Z,30.43
2018-02-18T23:36:07.851Z,27.67
2018-02-18T23:38:36.156Z,29.83
2018-02-18T23:41:04.465Z,24.33
2018-02-18T23:43:32.832Z,29.90
2018-02-18T23:46:01.159Z,28.67
2018-02-18T23:48:29.480Z,29.37
2018-02-18T23:50:57.888Z,30.23
2018-02-18T23:53:26.208Z,27.50
2018-02-18T23:55:54.519Z,23.00
2018-02-18T23:58:22.880Z,25.57
